sensor_id;sensor_type;location;lat;lon;timestamp;P1;durP1;ratioP1;P2;durP2;ratioP2
13267;SDS011;6702;47.068;15.458;2023-03-14T00:02:01;11.90;;;10.50;;
13267;SDS011;6702;47.068;15.458;2023-03-14T00:05:05;11.90;;;10.57;;
13267;SDS011;6702;47.068;15.458;2023-03-14T00:08:09;17.00;;;11.27;;
13267;SDS011;6702;47.068;15.458;2023-03-14T00:11:15;15.13;;;11.17;;
13267;SDS011;6702;47.068;15.458;2023-03-14T00:14:20;13.13;;;10.90;;
13267;SDS011;6702;47.068;15.458;2023-03-14T00:17:23;11.30;;;10.10;;
13267;SDS011;6702;47.068;15.458;2023-03-14T00:20:26;11.77;;;10.27;;
13267;SDS011;6702;47.068;15.458;2023-03-14T00:23:30;12.40;;;9.53;;
13267;SDS011;6702;47.068;15.458;2023-03-14T00:26:36;15.20;;;12.33;;
13267;SDS011;6702;47.068;15.458;2023-03-14T00:29:39;12.27;;;8.23;;
13267;SDS011;6702;47.068;15.458;2023-03-14T00:32:44;8.90;;;8.10;;
13267;SDS011;6702;47.068;15.458;2023-03-14T00:35:54;13.00;;;9.23;;
13267;SDS011;6702;47.068;15.458;2023-03-14T00:38:58;11.83;;;7.70;;
13267;SDS011;6702;47.068;15.458;2023-03-14T00:42:02;7.97;;;7.20;;
13267;SDS011;6702;47.068;15.458;2023-03-14T00:45:06;8.73;;;7.90;;
13267;SDS011;6702;47.068;15.458;2023-03-14T00:48:11;12.47;;;11.03;;
13267;SDS011;6702;47.068;15.458;2023-03-14T00:51:15;8.73;;;7.80;;
13267;SDS011;6702;47.068;15.458;2023-03-14T00:54:19;10.40;;;7.83;;
13267;SDS011;6702;47.068;15.458;2023-03-14T00:57:24;8.90;;;8.00;;
13267;SDS011;6702;47.068;15.458;2023-03-14T01:00:27;8.10;;;7.30;;
13267;SDS011;6702;47.068;15.458;2023-03-14T01:03:30;13.40;;;7.40;;
13267;SDS011;6702;47.068;15.458;2023-03-14T01:06:33;9.93;;;6.60;;
13267;SDS011;6702;47.068;15.458;2023-03-14T01:09:37;7.43;;;6.27;;
13267;SDS011;6702;47.068;15.458;2023-03-14T01:12:41;10.03;;;6.33;;
13267;SDS011;6702;47.068;15.458;2023-03-14T01:15:44;8.13;;;7.33;;
13267;SDS011;6702;47.068;15.458;2023-03-14T01:18:48;7.37;;;6.50;;
13267;SDS011;6702;47.068;15.458;2023-03-14T01:21:51;7.00;;;6.40;;
13267;SDS011;6702;47.068;15.458;2023-03-14T01:24:55;5.80;;;5.20;;
13267;SDS011;6702;47.068;15.458;2023-03-14T01:27:59;11.93;;;6.20;;
13267;SDS011;6702;47.068;15.458;2023-03-14T01:31:02;8.17;;;6.20;;
13267;SDS011;6702;47.068;15.458;2023-03-14T01:34:06;6.83;;;6.10;;
13267;SDS011;6702;47.068;15.458;2023-03-14T01:37:09;7.40;;;5.00;;
13267;SDS011;6702;47.068;15.458;2023-03-14T01:40:13;6.47;;;5.70;;
13267;SDS011;6702;47.068;15.458;2023-03-14T01:43:19;7.33;;;5.90;;
13267;SDS011;6702;47.068;15.458;2023-03-14T01:46:28;8.03;;;6.20;;
13267;SDS011;6702;47.068;15.458;2023-03-14T01:49:36;6.03;;;5.43;;
13267;SDS011;6702;47.068;15.458;2023-03-14T01:52:40;9.00;;;6.53;;
13267;SDS011;6702;47.068;15.458;2023-03-14T01:55:46;6.30;;;5.80;;
13267;SDS011;6702;47.068;15.458;2023-03-14T01:58:52;7.00;;;6.10;;
13267;SDS011;6702;47.068;15.458;2023-03-14T02:01:56;10.13;;;7.83;;
13267;SDS011;6702;47.068;15.458;2023-03-14T02:04:59;15.20;;;10.70;;
13267;SDS011;6702;47.068;15.458;2023-03-14T02:08:03;14.10;;;9.27;;
13267;SDS011;6702;47.068;15.458;2023-03-14T02:11:09;7.73;;;6.07;;
13267;SDS011;6702;47.068;15.458;2023-03-14T02:14:16;10.60;;;7.77;;
13267;SDS011;6702;47.068;15.458;2023-03-14T02:17:31;10.53;;;8.87;;
13267;SDS011;6702;47.068;15.458;2023-03-14T02:20:34;12.83;;;8.57;;
13267;SDS011;6702;47.068;15.458;2023-03-14T02:23:50;8.50;;;7.60;;
13267;SDS011;6702;47.068;15.458;2023-03-14T02:27:05;5.80;;;5.30;;
13267;SDS011;6702;47.068;15.458;2023-03-14T02:30:13;7.10;;;6.07;;
13267;SDS011;6702;47.068;15.458;2023-03-14T02:33:19;6.10;;;5.60;;
13267;SDS011;6702;47.068;15.458;2023-03-14T02:36:24;9.50;;;7.40;;
13267;SDS011;6702;47.068;15.458;2023-03-14T02:39:28;7.73;;;5.30;;
13267;SDS011;6702;47.068;15.458;2023-03-14T02:42:38;6.60;;;5.93;;
13267;SDS011;6702;47.068;15.458;2023-03-14T02:45:43;6.43;;;5.80;;
13267;SDS011;6702;47.068;15.458;2023-03-14T02:48:47;6.47;;;4.53;;
13267;SDS011;6702;47.068;15.458;2023-03-14T02:51:54;5.70;;;5.17;;
13267;SDS011;6702;47.068;15.458;2023-03-14T02:54:57;7.73;;;5.23;;
13267;SDS011;6702;47.068;15.458;2023-03-14T02:58:01;5.27;;;4.77;;
13267;SDS011;6702;47.068;15.458;2023-03-14T03:01:05;6.77;;;5.10;;
13267;SDS011;6702;47.068;15.458;2023-03-14T03:04:08;5.73;;;5.20;;
13267;SDS011;6702;47.068;15.458;2023-03-14T03:07:12;5.83;;;5.33;;
13267;SDS011;6702;47.068;15.458;2023-03-14T03:10:15;4.60;;;4.20;;
13267;SDS011;6702;47.068;15.458;2023-03-14T03:13:20;5.33;;;4.20;;
13267;SDS011;6702;47.068;15.458;2023-03-14T03:16:23;4.70;;;4.30;;
13267;SDS011;6702;47.068;15.458;2023-03-14T03:19:26;6.20;;;5.23;;
13267;SDS011;6702;47.068;15.458;2023-03-14T03:22:30;4.83;;;4.40;;
13267;SDS011;6702;47.068;15.458;2023-03-14T03:25:33;4.27;;;3.80;;
13267;SDS011;6702;47.068;15.458;2023-03-14T03:28:37;5.80;;;5.20;;
13267;SDS011;6702;47.068;15.458;2023-03-14T03:31:41;4.83;;;4.40;;
13267;SDS011;6702;47.068;15.458;2023-03-14T03:34:46;4.53;;;4.13;;
13267;SDS011;6702;47.068;15.458;2023-03-14T03:37:49;5.23;;;3.80;;
13267;SDS011;6702;47.068;15.458;2023-03-14T03:40:52;6.10;;;4.10;;
13267;SDS011;6702;47.068;15.458;2023-03-14T03:43:57;4.37;;;3.97;;
13267;SDS011;6702;47.068;15.458;2023-03-14T03:47:00;3.90;;;3.60;;
13267;SDS011;6702;47.068;15.458;2023-03-14T03:50:04;7.17;;;3.60;;
13267;SDS011;6702;47.068;15.458;2023-03-14T03:53:08;4.87;;;4.10;;
13267;SDS011;6702;47.068;15.458;2023-03-14T03:56:12;4.73;;;4.33;;
13267;SDS011;6702;47.068;15.458;2023-03-14T03:59:17;4.40;;;4.03;;
13267;SDS011;6702;47.068;15.458;2023-03-14T04:02:20;5.40;;;3.63;;
13267;SDS011;6702;47.068;15.458;2023-03-14T04:05:23;6.10;;;3.70;;
13267;SDS011;6702;47.068;15.458;2023-03-14T04:08:26;3.93;;;3.60;;
13267;SDS011;6702;47.068;15.458;2023-03-14T04:11:30;12.43;;;4.80;;
13267;SDS011;6702;47.068;15.458;2023-03-14T04:14:35;5.73;;;4.00;;
13267;SDS011;6702;47.068;15.458;2023-03-14T04:17:38;3.93;;;3.53;;
13267;SDS011;6702;47.068;15.458;2023-03-14T04:20:41;6.03;;;4.13;;
13267;SDS011;6702;47.068;15.458;2023-03-14T04:23:44;7.73;;;4.30;;
13267;SDS011;6702;47.068;15.458;2023-03-14T04:26:48;5.27;;;3.40;;
13267;SDS011;6702;47.068;15.458;2023-03-14T04:29:52;5.53;;;4.07;;
13267;SDS011;6702;47.068;15.458;2023-03-14T04:32:55;4.50;;;3.87;;
13267;SDS011;6702;47.068;15.458;2023-03-14T04:35:58;8.43;;;3.97;;
13267;SDS011;6702;47.068;15.458;2023-03-14T04:39:02;7.53;;;4.03;;
13267;SDS011;6702;47.068;15.458;2023-03-14T04:42:05;4.77;;;4.10;;
13267;SDS011;6702;47.068;15.458;2023-03-14T04:45:10;5.00;;;3.87;;
13267;SDS011;6702;47.068;15.458;2023-03-14T04:48:13;4.10;;;3.60;;
13267;SDS011;6702;47.068;15.458;2023-03-14T04:51:16;3.77;;;3.40;;
13267;SDS011;6702;47.068;15.458;2023-03-14T04:54:19;6.60;;;4.17;;
13267;SDS011;6702;47.068;15.458;2023-03-14T04:57:22;6.00;;;5.40;;
13267;SDS011;6702;47.068;15.458;2023-03-14T05:00:27;5.90;;;5.40;;
13267;SDS011;6702;47.068;15.458;2023-03-14T05:03:30;5.87;;;4.90;;
13267;SDS011;6702;47.068;15.458;2023-03-14T05:06:33;4.80;;;4.40;;
13267;SDS011;6702;47.068;15.458;2023-03-14T05:09:37;5.23;;;3.80;;
13267;SDS011;6702;47.068;15.458;2023-03-14T05:12:40;8.60;;;3.90;;
13267;SDS011;6702;47.068;15.458;2023-03-14T05:15:45;5.13;;;3.80;;
13267;SDS011;6702;47.068;15.458;2023-03-14T05:18:48;3.40;;;3.10;;
13267;SDS011;6702;47.068;15.458;2023-03-14T05:21:52;5.17;;;4.03;;
13267;SDS011;6702;47.068;15.458;2023-03-14T05:24:55;4.07;;;3.67;;
13267;SDS011;6702;47.068;15.458;2023-03-14T05:28:00;3.67;;;3.37;;
13267;SDS011;6702;47.068;15.458;2023-03-14T05:31:07;6.87;;;4.30;;
13267;SDS011;6702;47.068;15.458;2023-03-14T05:34:11;4.63;;;3.57;;
13267;SDS011;6702;47.068;15.458;2023-03-14T05:37:14;7.30;;;4.13;;
13267;SDS011;6702;47.068;15.458;2023-03-14T05:40:20;5.90;;;4.00;;
13267;SDS011;6702;47.068;15.458;2023-03-14T05:43:23;7.33;;;4.33;;
13267;SDS011;6702;47.068;15.458;2023-03-14T05:46:28;5.97;;;4.07;;
13267;SDS011;6702;47.068;15.458;2023-03-14T05:49:31;6.50;;;4.40;;
13267;SDS011;6702;47.068;15.458;2023-03-14T05:52:35;6.07;;;4.40;;
13267;SDS011;6702;47.068;15.458;2023-03-14T05:55:38;4.70;;;4.30;;
13267;SDS011;6702;47.068;15.458;2023-03-14T05:58:41;5.10;;;4.40;;
13267;SDS011;6702;47.068;15.458;2023-03-14T06:01:46;4.43;;;3.93;;
13267;SDS011;6702;47.068;15.458;2023-03-14T06:04:49;5.17;;;4.07;;
13267;SDS011;6702;47.068;15.458;2023-03-14T06:07:53;6.13;;;5.50;;
13267;SDS011;6702;47.068;15.458;2023-03-14T06:10:56;4.47;;;3.80;;
13267;SDS011;6702;47.068;15.458;2023-03-14T06:14:00;8.07;;;5.50;;
13267;SDS011;6702;47.068;15.458;2023-03-14T06:17:04;4.80;;;4.40;;
13267;SDS011;6702;47.068;15.458;2023-03-14T06:20:08;6.10;;;3.80;;
13267;SDS011;6702;47.068;15.458;2023-03-14T06:23:12;5.50;;;4.00;;
13267;SDS011;6702;47.068;15.458;2023-03-14T06:26:15;8.70;;;4.57;;
13267;SDS011;6702;47.068;15.458;2023-03-14T06:29:18;4.40;;;4.00;;
13267;SDS011;6702;47.068;15.458;2023-03-14T06:32:23;6.40;;;5.10;;
13267;SDS011;6702;47.068;15.458;2023-03-14T06:35:27;5.70;;;4.10;;
13267;SDS011;6702;47.068;15.458;2023-03-14T06:38:30;6.37;;;4.13;;
13267;SDS011;6702;47.068;15.458;2023-03-14T06:41:33;5.57;;;4.43;;
13267;SDS011;6702;47.068;15.458;2023-03-14T06:44:36;8.13;;;5.17;;
13267;SDS011;6702;47.068;15.458;2023-03-14T06:47:41;5.03;;;4.40;;
13267;SDS011;6702;47.068;15.458;2023-03-14T06:50:44;6.40;;;5.57;;
13267;SDS011;6702;47.068;15.458;2023-03-14T06:53:47;10.13;;;4.70;;
13267;SDS011;6702;47.068;15.458;2023-03-14T06:56:50;6.73;;;5.03;;
13267;SDS011;6702;47.068;15.458;2023-03-14T06:59:54;9.00;;;6.40;;
13267;SDS011;6702;47.068;15.458;2023-03-14T07:02:58;5.60;;;4.47;;
13267;SDS011;6702;47.068;15.458;2023-03-14T07:06:02;6.23;;;4.83;;
13267;SDS011;6702;47.068;15.458;2023-03-14T07:09:05;11.23;;;4.77;;
13267;SDS011;6702;47.068;15.458;2023-03-14T07:12:08;10.27;;;4.53;;
13267;SDS011;6702;47.068;15.458;2023-03-14T07:15:12;7.33;;;4.17;;
13267;SDS011;6702;47.068;15.458;2023-03-14T07:18:21;7.23;;;4.27;;
13267;SDS011;6702;47.068;15.458;2023-03-14T07:21:24;13.60;;;4.50;;
13267;SDS011;6702;47.068;15.458;2023-03-14T07:24:27;9.10;;;4.30;;
13267;SDS011;6702;47.068;15.458;2023-03-14T07:27:30;5.80;;;4.17;;
13267;SDS011;6702;47.068;15.458;2023-03-14T07:30:33;6.43;;;4.47;;
13267;SDS011;6702;47.068;15.458;2023-03-14T07:33:38;7.23;;;4.50;;
13267;SDS011;6702;47.068;15.458;2023-03-14T07:36:41;4.53;;;3.63;;
13267;SDS011;6702;47.068;15.458;2023-03-14T07:39:44;6.37;;;4.20;;
13267;SDS011;6702;47.068;15.458;2023-03-14T07:42:48;4.70;;;4.00;;
13267;SDS011;6702;47.068;15.458;2023-03-14T07:45:51;7.10;;;4.10;;
13267;SDS011;6702;47.068;15.458;2023-03-14T07:49:00;5.60;;;4.00;;
13267;SDS011;6702;47.068;15.458;2023-03-14T07:52:04;5.53;;;3.60;;
13267;SDS011;6702;47.068;15.458;2023-03-14T07:55:07;4.73;;;3.57;;
13267;SDS011;6702;47.068;15.458;2023-03-14T07:58:11;4.17;;;3.33;;
13267;SDS011;6702;47.068;15.458;2023-03-14T08:01:15;5.33;;;2.80;;
13267;SDS011;6702;47.068;15.458;2023-03-14T08:04:19;4.50;;;2.87;;
13267;SDS011;6702;47.068;15.458;2023-03-14T08:07:22;3.83;;;3.40;;
13267;SDS011;6702;47.068;15.458;2023-03-14T08:10:26;4.40;;;2.80;;
13267;SDS011;6702;47.068;15.458;2023-03-14T08:13:29;5.20;;;3.47;;
13267;SDS011;6702;47.068;15.458;2023-03-14T08:16:32;4.80;;;3.23;;
13267;SDS011;6702;47.068;15.458;2023-03-14T08:19:37;3.93;;;3.20;;
13267;SDS011;6702;47.068;15.458;2023-03-14T08:22:40;3.63;;;2.40;;
13267;SDS011;6702;47.068;15.458;2023-03-14T08:25:43;3.87;;;2.40;;
13267;SDS011;6702;47.068;15.458;2023-03-14T08:28:47;7.80;;;2.20;;
13267;SDS011;6702;47.068;15.458;2023-03-14T08:31:50;3.13;;;2.83;;
13267;SDS011;6702;47.068;15.458;2023-03-14T08:34:55;4.90;;;2.50;;
13267;SDS011;6702;47.068;15.458;2023-03-14T08:37:58;3.43;;;2.40;;
13267;SDS011;6702;47.068;15.458;2023-03-14T08:41:02;3.20;;;1.97;;
13267;SDS011;6702;47.068;15.458;2023-03-14T08:44:06;2.27;;;2.00;;
13267;SDS011;6702;47.068;15.458;2023-03-14T08:47:10;2.60;;;2.40;;
13267;SDS011;6702;47.068;15.458;2023-03-14T08:50:15;3.00;;;1.90;;
13267;SDS011;6702;47.068;15.458;2023-03-14T08:53:19;2.53;;;1.93;;
13267;SDS011;6702;47.068;15.458;2023-03-14T08:56:23;3.40;;;2.40;;
13267;SDS011;6702;47.068;15.458;2023-03-14T08:59:27;2.40;;;1.87;;
13267;SDS011;6702;47.068;15.458;2023-03-14T09:02:30;4.53;;;2.00;;
13267;SDS011;6702;47.068;15.458;2023-03-14T09:05:34;3.67;;;2.10;;
13267;SDS011;6702;47.068;15.458;2023-03-14T09:08:38;5.90;;;3.37;;
13267;SDS011;6702;47.068;15.458;2023-03-14T09:11:41;5.17;;;2.50;;
13267;SDS011;6702;47.068;15.458;2023-03-14T09:14:44;4.00;;;2.30;;
13267;SDS011;6702;47.068;15.458;2023-03-14T09:17:47;4.90;;;2.03;;
13267;SDS011;6702;47.068;15.458;2023-03-14T09:20:52;4.30;;;3.00;;
13267;SDS011;6702;47.068;15.458;2023-03-14T09:23:55;2.30;;;1.50;;
13267;SDS011;6702;47.068;15.458;2023-03-14T09:26:58;2.10;;;1.60;;
13267;SDS011;6702;47.068;15.458;2023-03-14T09:30:01;3.20;;;1.73;;
13267;SDS011;6702;47.068;15.458;2023-03-14T09:33:05;3.80;;;1.60;;
13267;SDS011;6702;47.068;15.458;2023-03-14T09:36:10;3.60;;;1.50;;
13267;SDS011;6702;47.068;15.458;2023-03-14T09:39:13;2.03;;;1.70;;
13267;SDS011;6702;47.068;15.458;2023-03-14T09:42:18;4.30;;;1.80;;
13267;SDS011;6702;47.068;15.458;2023-03-14T09:45:25;2.20;;;1.50;;
13267;SDS011;6702;47.068;15.458;2023-03-14T09:48:32;2.20;;;1.57;;
13267;SDS011;6702;47.068;15.458;2023-03-14T09:51:37;3.27;;;1.77;;
13267;SDS011;6702;47.068;15.458;2023-03-14T09:54:42;6.17;;;1.70;;
13267;SDS011;6702;47.068;15.458;2023-03-14T09:57:47;2.60;;;1.53;;
13267;SDS011;6702;47.068;15.458;2023-03-14T10:00:53;3.70;;;1.90;;
13267;SDS011;6702;47.068;15.458;2023-03-14T10:04:00;4.70;;;1.97;;
13267;SDS011;6702;47.068;15.458;2023-03-14T10:07:08;4.97;;;1.50;;
13267;SDS011;6702;47.068;15.458;2023-03-14T10:10:18;4.00;;;1.40;;
13267;SDS011;6702;47.068;15.458;2023-03-14T10:13:23;1.87;;;1.53;;
13267;SDS011;6702;47.068;15.458;2023-03-14T10:16:29;2.93;;;1.60;;
13267;SDS011;6702;47.068;15.458;2023-03-14T10:19:35;1.80;;;1.50;;
13267;SDS011;6702;47.068;15.458;2023-03-14T10:22:40;6.03;;;2.23;;
13267;SDS011;6702;47.068;15.458;2023-03-14T10:25:44;3.70;;;2.70;;
13267;SDS011;6702;47.068;15.458;2023-03-14T10:28:51;2.80;;;2.57;;
13267;SDS011;6702;47.068;15.458;2023-03-14T10:31:58;3.83;;;2.30;;
13267;SDS011;6702;47.068;15.458;2023-03-14T10:35:05;4.40;;;2.83;;
13267;SDS011;6702;47.068;15.458;2023-03-14T10:38:22;3.00;;;2.30;;
13267;SDS011;6702;47.068;15.458;2023-03-14T10:41:27;4.93;;;2.43;;
13267;SDS011;6702;47.068;15.458;2023-03-14T10:44:34;3.30;;;1.87;;
13267;SDS011;6702;47.068;15.458;2023-03-14T10:47:45;6.90;;;3.33;;
13267;SDS011;6702;47.068;15.458;2023-03-14T10:50:55;4.70;;;2.40;;
13267;SDS011;6702;47.068;15.458;2023-03-14T10:54:01;4.70;;;2.60;;
13267;SDS011;6702;47.068;15.458;2023-03-14T10:57:06;6.50;;;3.23;;
13267;SDS011;6702;47.068;15.458;2023-03-14T11:00:12;3.63;;;2.50;;
13267;SDS011;6702;47.068;15.458;2023-03-14T11:03:19;3.10;;;2.20;;
13267;SDS011;6702;47.068;15.458;2023-03-14T11:06:25;3.60;;;1.27;;
13267;SDS011;6702;47.068;15.458;2023-03-14T11:09:40;1.37;;;0.80;;
13267;SDS011;6702;47.068;15.458;2023-03-14T11:12:50;2.20;;;0.60;;
13267;SDS011;6702;47.068;15.458;2023-03-14T11:16:05;3.53;;;0.60;;
13267;SDS011;6702;47.068;15.458;2023-03-14T11:19:20;1.33;;;0.40;;
13267;SDS011;6702;47.068;15.458;2023-03-14T11:22:46;0.97;;;0.50;;
13267;SDS011;6702;47.068;15.458;2023-03-14T11:25:58;0.83;;;0.50;;
13267;SDS011;6702;47.068;15.458;2023-03-14T11:29:12;1.73;;;0.63;;
13267;SDS011;6702;47.068;15.458;2023-03-14T11:32:31;1.17;;;0.70;;
13267;SDS011;6702;47.068;15.458;2023-03-14T11:35:45;1.27;;;0.50;;
13267;SDS011;6702;47.068;15.458;2023-03-14T11:38:52;0.60;;;0.40;;
13267;SDS011;6702;47.068;15.458;2023-03-14T11:41:59;0.60;;;0.33;;
13267;SDS011;6702;47.068;15.458;2023-03-14T11:45:10;0.83;;;0.33;;
13267;SDS011;6702;47.068;15.458;2023-03-14T11:48:22;0.90;;;0.40;;
13267;SDS011;6702;47.068;15.458;2023-03-14T11:51:32;1.10;;;0.60;;
13267;SDS011;6702;47.068;15.458;2023-03-14T11:54:39;3.00;;;0.70;;
13267;SDS011;6702;47.068;15.458;2023-03-14T11:57:49;0.70;;;0.40;;
13267;SDS011;6702;47.068;15.458;2023-03-14T12:00:54;1.40;;;0.70;;
13267;SDS011;6702;47.068;15.458;2023-03-14T12:04:01;1.83;;;0.67;;
13267;SDS011;6702;47.068;15.458;2023-03-14T12:07:12;1.43;;;0.70;;
13267;SDS011;6702;47.068;15.458;2023-03-14T12:10:21;2.30;;;0.70;;
13267;SDS011;6702;47.068;15.458;2023-03-14T12:13:29;2.60;;;0.80;;
13267;SDS011;6702;47.068;15.458;2023-03-14T12:16:36;3.10;;;0.77;;
13267;SDS011;6702;47.068;15.458;2023-03-14T12:19:41;2.20;;;0.83;;
13267;SDS011;6702;47.068;15.458;2023-03-14T12:22:45;0.87;;;0.77;;
13267;SDS011;6702;47.068;15.458;2023-03-14T12:29:11;1.17;;;0.50;;
13267;SDS011;6702;47.068;15.458;2023-03-14T12:32:22;0.73;;;0.57;;
13267;SDS011;6702;47.068;15.458;2023-03-14T12:35:33;1.33;;;0.53;;
13267;SDS011;6702;47.068;15.458;2023-03-14T12:38:43;0.80;;;0.77;;
13267;SDS011;6702;47.068;15.458;2023-03-14T12:42:05;0.90;;;0.63;;
13267;SDS011;6702;47.068;15.458;2023-03-14T12:45:15;4.50;;;2.47;;
13267;SDS011;6702;47.068;15.458;2023-03-14T12:48:26;1.47;;;0.97;;
13267;SDS011;6702;47.068;15.458;2023-03-14T12:51:30;1.77;;;1.00;;
13267;SDS011;6702;47.068;15.458;2023-03-14T12:54:38;3.13;;;1.10;;
13267;SDS011;6702;47.068;15.458;2023-03-14T12:57:47;4.33;;;1.00;;
13267;SDS011;6702;47.068;15.458;2023-03-14T13:01:00;2.20;;;1.47;;
13267;SDS011;6702;47.068;15.458;2023-03-14T13:04:07;1.13;;;0.90;;
13267;SDS011;6702;47.068;15.458;2023-03-14T13:07:13;2.53;;;1.13;;
13267;SDS011;6702;47.068;15.458;2023-03-14T13:10:31;2.23;;;1.00;;
13267;SDS011;6702;47.068;15.458;2023-03-14T13:13:45;3.20;;;1.07;;
13267;SDS011;6702;47.068;15.458;2023-03-14T13:16:51;2.90;;;0.93;;
13267;SDS011;6702;47.068;15.458;2023-03-14T13:19:55;3.43;;;1.20;;
13267;SDS011;6702;47.068;15.458;2023-03-14T13:23:02;0.93;;;0.83;;
13267;SDS011;6702;47.068;15.458;2023-03-14T13:26:06;3.60;;;0.90;;
13267;SDS011;6702;47.068;15.458;2023-03-14T13:29:16;2.20;;;1.00;;
13267;SDS011;6702;47.068;15.458;2023-03-14T13:32:26;2.60;;;1.00;;
13267;SDS011;6702;47.068;15.458;2023-03-14T13:35:37;2.00;;;1.13;;
13267;SDS011;6702;47.068;15.458;2023-03-14T13:38:42;1.40;;;1.00;;
13267;SDS011;6702;47.068;15.458;2023-03-14T13:41:45;3.03;;;1.20;;
13267;SDS011;6702;47.068;15.458;2023-03-14T13:44:49;1.87;;;1.03;;
13267;SDS011;6702;47.068;15.458;2023-03-14T13:47:56;3.27;;;1.10;;
13267;SDS011;6702;47.068;15.458;2023-03-14T13:51:00;2.57;;;1.10;;
13267;SDS011;6702;47.068;15.458;2023-03-14T13:54:13;2.17;;;1.13;;
13267;SDS011;6702;47.068;15.458;2023-03-14T13:57:17;2.00;;;1.00;;
13267;SDS011;6702;47.068;15.458;2023-03-14T14:00:21;4.00;;;1.10;;
13267;SDS011;6702;47.068;15.458;2023-03-14T14:03:29;1.90;;;0.70;;
13267;SDS011;6702;47.068;15.458;2023-03-14T14:06:35;2.70;;;1.07;;
13267;SDS011;6702;47.068;15.458;2023-03-14T14:09:39;1.20;;;0.90;;
13267;SDS011;6702;47.068;15.458;2023-03-14T14:12:45;1.30;;;0.90;;
13267;SDS011;6702;47.068;15.458;2023-03-14T14:15:52;4.43;;;1.00;;
13267;SDS011;6702;47.068;15.458;2023-03-14T14:18:59;0.90;;;0.80;;
13267;SDS011;6702;47.068;15.458;2023-03-14T14:22:04;1.30;;;1.10;;
13267;SDS011;6702;47.068;15.458;2023-03-14T14:25:11;0.80;;;0.77;;
13267;SDS011;6702;47.068;15.458;2023-03-14T14:28:17;1.50;;;1.17;;
13267;SDS011;6702;47.068;15.458;2023-03-14T14:31:25;1.60;;;1.03;;
13267;SDS011;6702;47.068;15.458;2023-03-14T14:34:30;1.13;;;0.80;;
13267;SDS011;6702;47.068;15.458;2023-03-14T14:37:42;0.90;;;0.70;;
13267;SDS011;6702;47.068;15.458;2023-03-14T14:40:48;2.20;;;1.10;;
13267;SDS011;6702;47.068;15.458;2023-03-14T14:43:53;1.33;;;1.23;;
13267;SDS011;6702;47.068;15.458;2023-03-14T14:46:57;6.50;;;5.37;;
13267;SDS011;6702;47.068;15.458;2023-03-14T14:50:03;3.23;;;1.77;;
13267;SDS011;6702;47.068;15.458;2023-03-14T14:53:19;1.90;;;1.80;;
13267;SDS011;6702;47.068;15.458;2023-03-14T14:56:25;2.20;;;1.30;;
13267;SDS011;6702;47.068;15.458;2023-03-14T14:59:29;1.60;;;1.20;;
13267;SDS011;6702;47.068;15.458;2023-03-14T15:02:35;6.70;;;1.30;;
13267;SDS011;6702;47.068;15.458;2023-03-14T15:05:46;4.67;;;1.57;;
13267;SDS011;6702;47.068;15.458;2023-03-14T15:08:50;3.90;;;1.33;;
13267;SDS011;6702;47.068;15.458;2023-03-14T15:11:54;1.27;;;1.10;;
13267;SDS011;6702;47.068;15.458;2023-03-14T15:14:58;3.37;;;1.10;;
13267;SDS011;6702;47.068;15.458;2023-03-14T15:18:01;1.53;;;1.00;;
13267;SDS011;6702;47.068;15.458;2023-03-14T15:21:06;1.77;;;1.10;;
13267;SDS011;6702;47.068;15.458;2023-03-14T15:24:09;0.90;;;0.80;;
13267;SDS011;6702;47.068;15.458;2023-03-14T15:27:13;1.37;;;0.50;;
13267;SDS011;6702;47.068;15.458;2023-03-14T15:30:18;1.40;;;0.80;;
13267;SDS011;6702;47.068;15.458;2023-03-14T15:33:21;7.77;;;1.60;;
13267;SDS011;6702;47.068;15.458;2023-03-14T15:36:27;3.57;;;1.40;;
13267;SDS011;6702;47.068;15.458;2023-03-14T15:39:32;3.47;;;0.90;;
13267;SDS011;6702;47.068;15.458;2023-03-14T15:42:35;1.50;;;0.67;;
13267;SDS011;6702;47.068;15.458;2023-03-14T15:45:38;1.17;;;0.90;;
13267;SDS011;6702;47.068;15.458;2023-03-14T15:48:43;2.17;;;1.60;;
13267;SDS011;6702;47.068;15.458;2023-03-14T15:51:47;2.60;;;1.20;;
13267;SDS011;6702;47.068;15.458;2023-03-14T15:54:51;3.93;;;2.40;;
13267;SDS011;6702;47.068;15.458;2023-03-14T15:57:54;2.23;;;1.97;;
13267;SDS011;6702;47.068;15.458;2023-03-14T16:00:57;3.80;;;2.07;;
13267;SDS011;6702;47.068;15.458;2023-03-14T16:04:00;1.77;;;1.40;;
13267;SDS011;6702;47.068;15.458;2023-03-14T16:07:06;1.57;;;1.40;;
13267;SDS011;6702;47.068;15.458;2023-03-14T16:10:10;2.10;;;1.90;;
13267;SDS011;6702;47.068;15.458;2023-03-14T16:13:14;2.63;;;1.30;;
13267;SDS011;6702;47.068;15.458;2023-03-14T16:16:18;3.27;;;1.57;;
13267;SDS011;6702;47.068;15.458;2023-03-14T16:19:21;1.30;;;1.20;;
13267;SDS011;6702;47.068;15.458;2023-03-14T16:22:28;1.17;;;1.07;;
13267;SDS011;6702;47.068;15.458;2023-03-14T16:25:34;1.47;;;0.93;;
13267;SDS011;6702;47.068;15.458;2023-03-14T16:28:37;1.70;;;1.10;;
13267;SDS011;6702;47.068;15.458;2023-03-14T16:31:41;3.23;;;1.30;;
13267;SDS011;6702;47.068;15.458;2023-03-14T16:34:45;1.17;;;0.90;;
13267;SDS011;6702;47.068;15.458;2023-03-14T16:37:50;3.90;;;1.40;;
13267;SDS011;6702;47.068;15.458;2023-03-14T16:40:57;0.90;;;0.90;;
13267;SDS011;6702;47.068;15.458;2023-03-14T16:44:02;3.10;;;1.60;;
13267;SDS011;6702;47.068;15.458;2023-03-14T16:47:06;1.87;;;1.77;;
13267;SDS011;6702;47.068;15.458;2023-03-14T16:50:11;1.83;;;1.70;;
13267;SDS011;6702;47.068;15.458;2023-03-14T16:53:16;1.90;;;1.57;;
13267;SDS011;6702;47.068;15.458;2023-03-14T16:56:20;5.30;;;2.60;;
13267;SDS011;6702;47.068;15.458;2023-03-14T16:59:26;3.00;;;1.87;;
13267;SDS011;6702;47.068;15.458;2023-03-14T17:02:30;2.93;;;2.30;;
13267;SDS011;6702;47.068;15.458;2023-03-14T17:05:33;2.50;;;2.03;;
13267;SDS011;6702;47.068;15.458;2023-03-14T17:08:38;4.83;;;1.90;;
13267;SDS011;6702;47.068;15.458;2023-03-14T17:11:42;2.17;;;1.37;;
13267;SDS011;6702;47.068;15.458;2023-03-14T17:14:46;1.70;;;1.50;;
13267;SDS011;6702;47.068;15.458;2023-03-14T17:17:49;1.70;;;1.40;;
13267;SDS011;6702;47.068;15.458;2023-03-14T17:20:55;2.90;;;1.80;;
13267;SDS011;6702;47.068;15.458;2023-03-14T17:24:02;3.80;;;2.80;;
13267;SDS011;6702;47.068;15.458;2023-03-14T17:27:06;4.20;;;1.30;;
13267;SDS011;6702;47.068;15.458;2023-03-14T17:30:10;1.47;;;1.27;;
13267;SDS011;6702;47.068;15.458;2023-03-14T17:33:16;1.97;;;1.57;;
13267;SDS011;6702;47.068;15.458;2023-03-14T17:36:25;2.50;;;1.40;;
13267;SDS011;6702;47.068;15.458;2023-03-14T17:39:34;1.10;;;1.00;;
13267;SDS011;6702;47.068;15.458;2023-03-14T17:42:40;1.83;;;1.43;;
13267;SDS011;6702;47.068;15.458;2023-03-14T17:45:47;1.70;;;1.50;;
13267;SDS011;6702;47.068;15.458;2023-03-14T17:48:58;2.30;;;1.63;;
13267;SDS011;6702;47.068;15.458;2023-03-14T17:52:03;1.77;;;1.00;;
13267;SDS011;6702;47.068;15.458;2023-03-14T17:55:11;1.67;;;1.40;;
13267;SDS011;6702;47.068;15.458;2023-03-14T17:58:16;2.50;;;1.70;;
13267;SDS011;6702;47.068;15.458;2023-03-14T18:01:21;2.20;;;1.03;;
13267;SDS011;6702;47.068;15.458;2023-03-14T18:04:27;2.50;;;1.33;;
13267;SDS011;6702;47.068;15.458;2023-03-14T18:07:32;2.30;;;1.13;;
13267;SDS011;6702;47.068;15.458;2023-03-14T18:10:40;3.97;;;1.73;;
13267;SDS011;6702;47.068;15.458;2023-03-14T18:13:45;4.13;;;2.07;;
13267;SDS011;6702;47.068;15.458;2023-03-14T18:16:49;2.10;;;1.90;;
13267;SDS011;6702;47.068;15.458;2023-03-14T18:19:54;2.10;;;2.00;;
13267;SDS011;6702;47.068;15.458;2023-03-14T18:23:05;2.20;;;1.97;;
13267;SDS011;6702;47.068;15.458;2023-03-14T18:26:12;1.47;;;1.37;;
13267;SDS011;6702;47.068;15.458;2023-03-14T18:29:16;3.00;;;2.03;;
13267;SDS011;6702;47.068;15.458;2023-03-14T18:32:22;1.77;;;1.30;;
13267;SDS011;6702;47.068;15.458;2023-03-14T18:35:28;2.10;;;1.60;;
13267;SDS011;6702;47.068;15.458;2023-03-14T18:38:34;1.60;;;1.37;;